Time;durP1;ratioP1;P1;durP2;ratioP2;P2;SDS_P1;SDS_P2;PMS_P1;PMS_P2;Temp;Humidity;BMP_temperature;BMP_pressure;BME280_temperature;BME280_humidity;BME280_pressure;Samples;Min_cycle;Max_cycle;Signal;HPM_P1;HPM_P2
2023/12/29 00:01:48;;;;;;;9.32;1.50;;;10.50;99.90;;;;;;5100905;28;20115;-70
2023/12/29 00:04:14;;;;;;;11.65;1.73;;;10.50;99.90;;;;;;5100377;28;20106;-70
2023/12/29 00:06:40;;;;;;;8.98;1.52;;;10.50;99.90;;;;;;5102010;28;20040;-69
2023/12/29 00:09:07;;;;;;;8.80;1.55;;;10.40;99.90;;;;;;5104092;27;20097;-69
2023/12/29 00:11:33;;;;;;;7.95;1.77;;;10.40;99.90;;;;;;5138667;27;20926;-69
2023/12/29 00:13:58;;;;;;;9.00;2.45;;;10.40;99.90;;;;;;5134351;27;20044;-69
2023/12/29 00:16:24;;;;;;;8.13;1.25;;;10.40;99.90;;;;;;5133483;27;20462;-70
2023/12/29 00:18:49;;;;;;;12.43;2.30;;;10.40;99.90;;;;;;5102656;28;20514;-70
2023/12/29 00:21:15;;;;;;;11.15;2.42;;;10.40;99.90;;;;;;5136104;27;20052;-69
2023/12/29 00:23:41;;;;;;;11.38;2.13;;;10.40;99.90;;;;;;5135121;27;20031;-69
2023/12/29 00:26:06;;;;;;;8.35;1.50;;;10.30;99.90;;;;;;5108326;27;20039;-69
2023/12/29 00:28:32;;;;;;;5.25;1.77;;;10.50;99.90;;;;;;5098531;28;20063;-69
2023/12/29 00:30:57;;;;;;;7.20;1.75;;;10.30;99.90;;;;;;5103797;28;20510;-69
2023/12/29 00:33:23;;;;;;;8.88;1.48;;;10.40;99.90;;;;;;5103391;28;20069;-69
2023/12/29 00:35:49;;;;;;;7.53;1.70;;;10.30;99.90;;;;;;5101837;28;20393;-69
2023/12/29 00:38:14;;;;;;;6.60;1.20;;;10.30;99.90;;;;;;5102653;28;20470;-70
2023/12/29 00:40:40;;;;;;;9.43;1.45;;;10.30;99.90;;;;;;5103174;28;20036;-69
2023/12/29 00:43:05;;;;;;;6.35;1.58;;;10.20;99.90;;;;;;5104552;28;20645;-69
2023/12/29 00:45:35;;;;;;;8.27;1.52;;;10.20;99.90;;;;;;5085385;28;20039;-69
2023/12/29 00:48:01;;;;;;;10.55;3.13;;;10.20;99.90;;;;;;5100578;28;20044;-69
2023/12/29 00:50:27;;;;;;;8.00;1.52;;;10.20;99.90;;;;;;5104017;28;20108;-69
2023/12/29 00:52:53;;;;;;;10.13;1.92;;;10.10;99.90;;;;;;5102283;27;20115;-69
2023/12/29 00:55:19;;;;;;;9.32;2.60;;;10.10;99.90;;;;;;5134751;27;20047;-69
2023/12/29 00:57:44;;;;;;;8.50;2.20;;;10.10;99.90;;;;;;5103740;28;20036;-69
2023/12/29 01:00:12;;;;;;;9.77;1.58;;;10.10;99.90;;;;;;5101666;28;20039;-69
2023/12/29 01:02:40;;;;;;;11.90;1.80;;;10.10;99.90;;;;;;5136045;27;20040;-69
2023/12/29 01:05:06;;;;;;;9.80;2.00;;;10.10;99.90;;;;;;5137224;27;20397;-69
2023/12/29 01:07:32;;;;;;;13.73;2.72;;;10.00;99.90;;;;;;5104121;27;20051;-70
2023/12/29 01:09:57;;;;;;;10.27;1.95;;;10.00;99.90;;;;;;5134309;27;20039;-69
2023/12/29 01:12:23;;;;;;;10.55;2.22;;;10.00;99.90;;;;;;5100956;28;20040;-69
2023/12/29 01:14:49;;;;;;;10.25;2.83;;;9.90;99.90;;;;;;5134698;27;20046;-69
2023/12/29 01:17:14;;;;;;;8.73;1.95;;;10.00;99.90;;;;;;5101737;28;20039;-69
2023/12/29 01:19:40;;;;;;;6.65;1.85;;;9.90;99.90;;;;;;5100996;28;20550;-69
2023/12/29 01:22:05;;;;;;;7.90;1.23;;;9.90;99.90;;;;;;5102440;27;20040;-69
2023/12/29 01:24:31;;;;;;;12.90;2.42;;;10.00;99.90;;;;;;5102437;28;20269;-69
2023/12/29 01:26:57;;;;;;;10.05;1.65;;;10.00;99.90;;;;;;5104246;27;20072;-69
2023/12/29 01:29:22;;;;;;;9.45;2.15;;;10.00;99.90;;;;;;5100825;27;20097;-69
2023/12/29 01:31:48;;;;;;;12.80;2.45;;;10.00;99.90;;;;;;5134301;27;20051;-69
2023/12/29 01:34:14;;;;;;;13.30;2.25;;;10.00;99.90;;;;;;5103553;28;20024;-69
2023/12/29 01:36:39;;;;;;;13.57;2.20;;;9.90;99.90;;;;;;5100276;28;20069;-69
2023/12/29 01:39:05;;;;;;;11.95;3.08;;;10.00;99.90;;;;;;5116273;27;20537;-69
2023/12/29 01:41:31;;;;;;;8.80;2.25;;;10.00;99.90;;;;;;5102277;28;20070;-69
2023/12/29 01:43:56;;;;;;;12.85;2.88;;;10.00;99.90;;;;;;5135591;27;20043;-69
2023/12/29 01:46:23;;;;;;;12.10;2.55;;;10.00;99.90;;;;;;5099340;28;20617;-69
2023/12/29 01:48:48;;;;;;;9.35;2.15;;;10.00;99.90;;;;;;5102232;28;20035;-69
2023/12/29 01:51:15;;;;;;;14.35;2.50;;;10.00;99.90;;;;;;5101093;28;20031;-70
2023/12/29 01:53:41;;;;;;;7.53;2.05;;;9.90;99.90;;;;;;5105455;28;20516;-70
2023/12/29 01:56:07;;;;;;;11.18;2.75;;;10.00;99.90;;;;;;5101656;28;20036;-70
2023/12/29 01:58:33;;;;;;;9.18;2.13;;;9.90;99.90;;;;;;5100132;28;20082;-70
2023/12/29 02:01:01;;;;;;;7.43;1.67;;;9.80;99.90;;;;;;5107509;28;20480;-70
2023/12/29 02:03:27;;;;;;;11.93;1.88;;;9.90;99.90;;;;;;5099620;28;20399;-70
2023/12/29 02:05:54;;;;;;;8.43;1.75;;;9.90;99.90;;;;;;5103320;28;20100;-70
2023/12/29 02:08:22;;;;;;;11.63;2.47;;;9.80;99.90;;;;;;5133752;27;20031;-70
2023/12/29 02:10:48;;;;;;;9.30;1.55;;;9.80;99.90;;;;;;5098146;28;20102;-70
2023/12/29 02:13:14;;;;;;;7.75;1.92;;;9.90;99.90;;;;;;5100239;28;20039;-70
2023/12/29 02:15:40;;;;;;;12.68;1.98;;;9.80;99.90;;;;;;5099186;28;20054;-70
2023/12/29 02:18:09;;;;;;;14.20;2.78;;;9.90;99.90;;;;;;5098677;28;20036;-70
2023/12/29 02:20:35;;;;;;;15.55;3.05;;;9.90;99.90;;;;;;5096990;28;20036;-70
2023/12/29 02:23:02;;;;;;;12.93;2.10;;;9.90;99.90;;;;;;5102932;28;20039;-70
2023/12/29 02:25:28;;;;;;;11.35;1.73;;;10.00;99.90;;;;;;5134691;27;20043;-70
2023/12/29 02:28:18;;;;;;;12.57;2.22;;;9.90;99.90;;;;;;5104339;28;20031;-70
2023/12/29 02:31:00;;;;;;;12.10;1.90;;;10.00;99.90;;;;;;5104102;28;20087;-70
2023/12/29 02:33:27;;;;;;;12.10;3.17;;;10.00;99.90;;;;;;5106460;27;20518;-70
2023/12/29 02:35:57;;;;;;;13.07;2.65;;;10.00;99.90;;;;;;5108159;27;20046;-70
2023/12/29 02:38:27;;;;;;;11.65;1.70;;;10.00;99.90;;;;;;5138253;27;20390;-70
2023/12/29 02:40:55;;;;;;;11.48;2.40;;;10.00;99.90;;;;;;5135506;27;20043;-70
2023/12/29 02:43:20;;;;;;;10.10;2.45;;;9.90;99.90;;;;;;5137818;27;20088;-70
2023/12/29 02:45:46;;;;;;;17.58;2.85;;;9.80;99.90;;;;;;5139892;27;20035;-70
2023/12/29 02:48:12;;;;;;;11.07;2.58;;;9.80;99.90;;;;;;5107687;28;20035;-70
2023/12/29 02:50:37;;;;;;;9.77;1.95;;;9.70;99.90;;;;;;5137659;27;20055;-71
2023/12/29 02:53:04;;;;;;;6.97;1.23;;;9.60;99.90;;;;;;5104007;27;20412;-71
2023/12/29 02:55:29;;;;;;;7.53;1.02;;;9.30;99.90;;;;;;5105385;27;20036;-71
2023/12/29 02:57:55;;;;;;;10.75;1.33;;;9.20;99.90;;;;;;5104567;28;20105;-70
2023/12/29 03:00:20;;;;;;;7.32;1.10;;;9.30;99.90;;;;;;5107044;28;20127;-70
2023/12/29 03:02:46;;;;;;;11.80;1.88;;;9.20;99.90;;;;;;5101822;27;20031;-70
2023/12/29 03:05:12;;;;;;;12.32;2.72;;;9.20;99.90;;;;;;5140476;27;20539;-70
2023/12/29 03:07:39;;;;;;;15.07;2.30;;;9.30;99.90;;;;;;5135419;27;20035;-70
2023/12/29 03:10:05;;;;;;;9.63;2.13;;;9.40;99.90;;;;;;5089780;28;20094;-70
2023/12/29 03:12:31;;;;;;;13.07;2.10;;;9.40;99.90;;;;;;5103253;27;20486;-70
2023/12/29 03:14:56;;;;;;;15.45;1.98;;;9.70;99.90;;;;;;5107277;28;20092;-70
2023/12/29 03:17:22;;;;;;;15.15;2.25;;;9.50;99.90;;;;;;5101701;27;20032;-70
2023/12/29 03:19:47;;;;;;;14.73;3.67;;;9.60;99.90;;;;;;5103452;28;20043;-70
2023/12/29 03:22:13;;;;;;;16.98;3.67;;;9.60;99.90;;;;;;5112175;27;20393;-70
2023/12/29 03:24:40;;;;;;;10.98;2.05;;;9.60;99.90;;;;;;5106759;27;20110;-70
2023/12/29 03:27:06;;;;;;;13.48;2.63;;;9.80;99.90;;;;;;5137081;27;20473;-70
2023/12/29 03:29:32;;;;;;;13.93;2.88;;;9.70;99.90;;;;;;5136070;27;20082;-70
2023/12/29 03:31:57;;;;;;;12.43;2.85;;;9.70;99.90;;;;;;5104487;27;20055;-70
2023/12/29 03:34:23;;;;;;;10.70;1.90;;;9.80;99.90;;;;;;5105631;27;20043;-70
2023/12/29 03:36:48;;;;;;;13.82;2.80;;;9.80;99.90;;;;;;5104063;27;20043;-70
2023/12/29 03:39:14;;;;;;;11.35;1.67;;;9.80;99.90;;;;;;5136924;27;20051;-70
2023/12/29 03:41:40;;;;;;;15.85;2.53;;;9.80;99.90;;;;;;5102607;28;20035;-70
2023/12/29 03:44:06;;;;;;;14.15;1.98;;;9.80;99.90;;;;;;5104156;27;20082;-70
2023/12/29 03:46:32;;;;;;;10.27;1.73;;;9.80;99.90;;;;;;5106190;27;20064;-70
2023/12/29 03:48:58;;;;;;;12.77;2.63;;;9.80;99.90;;;;;;5100792;27;20040;-71
2023/12/29 03:51:24;;;;;;;9.80;1.98;;;9.70;99.90;;;;;;5135362;27;20032;-71
2023/12/29 03:53:50;;;;;;;16.30;2.15;;;9.70;99.90;;;;;;5102931;27;20043;-71
2023/12/29 03:56:17;;;;;;;16.38;2.60;;;9.70;99.90;;;;;;5136355;27;20031;-70
2023/12/29 03:58:46;;;;;;;13.93;2.63;;;9.70;99.90;;;;;;5099079;28;20047;-70
2023/12/29 04:01:13;;;;;;;15.30;2.28;;;9.70;99.90;;;;;;5104745;27;20048;-70
2023/12/29 04:03:39;;;;;;;11.70;2.42;;;9.60;99.90;;;;;;5137723;27;20521;-70
2023/12/29 04:06:05;;;;;;;16.85;2.85;;;9.70;99.90;;;;;;5106584;27;20031;-70
2023/12/29 04:08:31;;;;;;;12.02;2.85;;;9.70;99.90;;;;;;5139479;27;20054;-70
2023/12/29 04:10:56;;;;;;;12.52;2.30;;;9.60;99.90;;;;;;5102823;27;20401;-70
2023/12/29 04:13:22;;;;;;;17.85;3.00;;;9.50;99.90;;;;;;5105388;27;20043;-70
2023/12/29 04:15:48;;;;;;;16.25;2.85;;;9.60;99.90;;;;;;5136642;27;20059;-70
2023/12/29 04:18:13;;;;;;;17.80;3.22;;;9.50;99.90;;;;;;5096189;28;20044;-70
2023/12/29 04:20:39;;;;;;;14.32;2.95;;;9.50;99.90;;;;;;5105681;27;20136;-70
2023/12/29 04:23:06;;;;;;;18.63;3.13;;;9.50;99.90;;;;;;5102144;27;20036;-70
2023/12/29 04:25:32;;;;;;;17.67;3.45;;;9.50;99.90;;;;;;5087714;28;20089;-70
2023/12/29 04:27:57;;;;;;;16.42;3.08;;;9.50;99.90;;;;;;5102579;28;20446;-70
2023/12/29 04:30:23;;;;;;;16.50;2.30;;;9.50;99.90;;;;;;5102609;28;20052;-70
2023/12/29 04:32:49;;;;;;;12.00;2.00;;;9.60;99.90;;;;;;5100951;27;20145;-70
2023/12/29 04:35:15;;;;;;;18.17;3.28;;;9.50;99.90;;;;;;5104545;27;20036;-70
2023/12/29 04:37:42;;;;;;;19.63;3.08;;;9.50;99.90;;;;;;5100945;27;20044;-70
2023/12/29 04:40:08;;;;;;;16.08;2.90;;;9.50;99.90;;;;;;5104634;28;20377;-70
2023/12/29 04:42:33;;;;;;;17.80;3.58;;;9.50;99.90;;;;;;5135844;27;20032;-70
2023/12/29 04:44:59;;;;;;;17.95;3.30;;;9.50;99.90;;;;;;5101303;27;20036;-70
2023/12/29 04:47:25;;;;;;;20.38;3.53;;;9.50;99.90;;;;;;5101867;28;20048;-70
2023/12/29 04:49:50;;;;;;;25.52;4.05;;;9.60;99.90;;;;;;5102071;27;20047;-70
2023/12/29 04:52:16;;;;;;;16.08;4.07;;;9.60;99.90;;;;;;5099697;28;20490;-70
2023/12/29 04:54:41;;;;;;;19.30;3.05;;;9.60;99.90;;;;;;5102426;27;20044;-70
2023/12/29 04:57:07;;;;;;;23.55;3.72;;;9.50;99.90;;;;;;5103319;27;20516;-70
2023/12/29 04:59:32;;;;;;;17.95;3.63;;;9.50;99.90;;;;;;5106445;27;20078;-70
2023/12/29 05:01:58;;;;;;;21.38;3.85;;;9.50;99.90;;;;;;5103464;27;20466;-70
2023/12/29 05:04:23;;;;;;;19.60;4.55;;;9.60;99.90;;;;;;5104578;27;20126;-70
2023/12/29 05:06:49;;;;;;;19.50;3.15;;;9.60;99.90;;;;;;5106698;27;20374;-70
2023/12/29 05:09:15;;;;;;;28.35;5.03;;;9.50;99.90;;;;;;5105439;27;20042;-70
2023/12/29 05:11:40;;;;;;;19.27;3.30;;;9.60;99.90;;;;;;5138929;27;20047;-70
2023/12/29 05:14:06;;;;;;;14.40;3.63;;;9.60;99.90;;;;;;5139041;27;20051;-70
2023/12/29 05:16:31;;;;;;;23.20;4.45;;;9.50;99.90;;;;;;5101234;27;20086;-70
2023/12/29 05:18:57;;;;;;;16.38;4.00;;;9.50;99.90;;;;;;5136027;27;20044;-70
2023/12/29 05:21:24;;;;;;;15.38;3.63;;;9.60;99.90;;;;;;5134749;27;20036;-70
2023/12/29 05:23:50;;;;;;;20.58;3.25;;;9.50;99.90;;;;;;5108208;27;20347;-70
2023/12/29 05:26:15;;;;;;;20.42;3.97;;;9.50;99.90;;;;;;5102202;27;20088;-71
2023/12/29 05:28:41;;;;;;;17.45;4.28;;;9.60;99.90;;;;;;5102322;27;20035;-70
2023/12/29 05:31:07;;;;;;;17.63;2.70;;;9.60;99.90;;;;;;5104145;27;20071;-70
2023/12/29 05:33:33;;;;;;;19.42;3.78;;;9.60;99.90;;;;;;5103251;28;20476;-70
2023/12/29 05:36:05;;;;;;;18.05;3.47;;;9.60;99.90;;;;;;5131950;27;20046;-70
2023/12/29 05:38:31;;;;;;;18.60;3.58;;;9.50;99.90;;;;;;5101755;27;20478;-70
2023/12/29 05:40:57;;;;;;;20.65;4.20;;;9.60;99.90;;;;;;5137198;27;20047;-70
2023/12/29 05:43:22;;;;;;;18.98;3.17;;;9.60;99.90;;;;;;5103699;27;20486;-70
2023/12/29 05:45:48;;;;;;;17.55;3.33;;;9.60;99.90;;;;;;5090391;28;20116;-70
2023/12/29 05:48:14;;;;;;;14.50;2.75;;;9.60;99.90;;;;;;5139912;27;20477;-70
2023/12/29 05:50:40;;;;;;;15.52;3.10;;;9.50;99.90;;;;;;5105445;27;20551;-70
2023/12/29 05:53:06;;;;;;;18.40;3.80;;;9.50;99.90;;;;;;5106091;28;20027;-70
2023/12/29 05:55:31;;;;;;;16.05;3.55;;;9.50;99.90;;;;;;5099807;27;20043;-70
2023/12/29 05:57:57;;;;;;;15.55;2.53;;;9.40;99.90;;;;;;5100715;28;20363;-70
2023/12/29 06:00:23;;;;;;;17.90;3.17;;;9.40;99.90;;;;;;5098386;28;20055;-71
2023/12/29 06:02:48;;;;;;;17.40;3.10;;;9.50;99.90;;;;;;5102536;28;20031;-71
2023/12/29 06:05:15;;;;;;;19.63;4.38;;;9.50;99.90;;;;;;5100387;28;20067;-71
2023/12/29 06:07:41;;;;;;;23.90;4.93;;;9.50;99.90;;;;;;5102821;28;20392;-71
2023/12/29 06:10:08;;;;;;;20.65;4.15;;;9.50;99.90;;;;;;5095547;28;20046;-71
2023/12/29 06:12:33;;;;;;;19.13;3.95;;;9.50;99.90;;;;;;5100873;28;20126;-71
2023/12/29 06:14:59;;;;;;;23.58;3.95;;;9.40;99.90;;;;;;5103028;28;20131;-70
2023/12/29 06:17:25;;;;;;;19.20;3.13;;;9.50;99.90;;;;;;5131161;27;20059;-70
2023/12/29 06:19:50;;;;;;;20.58;4.13;;;9.40;99.90;;;;;;5097862;28;20164;-70
2023/12/29 06:22:16;;;;;;;18.33;3.08;;;9.40;99.90;;;;;;5105535;28;20438;-70
2023/12/29 06:24:41;;;;;;;16.77;3.55;;;9.40;99.90;;;;;;5134076;27;20040;-70
2023/12/29 06:27:12;;;;;;;20.30;3.22;;;9.50;99.90;;;;;;5133146;27;20052;-70
2023/12/29 06:29:38;;;;;;;20.83;3.05;;;9.50;99.90;;;;;;5100800;28;20524;-70
2023/12/29 06:32:04;;;;;;;28.60;4.07;;;9.50;99.90;;;;;;5131069;27;20040;-70
2023/12/29 06:34:30;;;;;;;24.45;4.80;;;9.50;99.90;;;;;;5139683;27;20104;-70
2023/12/29 06:36:55;;;;;;;17.27;3.90;;;9.50;99.90;;;;;;5106639;28;20608;-70
2023/12/29 06:39:22;;;;;;;25.80;4.75;;;9.50;99.90;;;;;;5100271;28;20075;-70
2023/12/29 06:41:48;;;;;;;23.27;4.30;;;9.60;99.90;;;;;;5100336;28;20048;-70
2023/12/29 06:44:14;;;;;;;22.70;4.55;;;9.50;99.90;;;;;;5104483;28;20466;-70
2023/12/29 06:46:40;;;;;;;23.40;3.92;;;9.60;99.90;;;;;;5132351;27;20540;-70
2023/12/29 06:49:09;;;;;;;25.40;4.00;;;9.60;99.90;;;;;;5102448;28;20524;-70
2023/12/29 06:51:40;;;;;;;18.10;4.68;;;9.60;99.90;;;;;;5102518;28;20081;-70
2023/12/29 06:54:06;;;;;;;32.58;5.43;;;9.60;99.90;;;;;;5100540;28;20040;-70
2023/12/29 06:56:32;;;;;;;24.35;5.55;;;9.60;99.90;;;;;;5129975;27;20055;-70
2023/12/29 06:58:57;;;;;;;25.77;4.80;;;9.60;99.90;;;;;;5100572;28;20032;-70
2023/12/29 07:01:24;;;;;;;25.13;3.85;;;9.50;99.90;;;;;;5132447;27;20042;-70
2023/12/29 07:03:50;;;;;;;25.55;4.13;;;9.50;99.90;;;;;;5106348;28;20039;-70
2023/12/29 07:06:16;;;;;;;30.48;5.10;;;9.50;99.90;;;;;;5133529;27;20052;-70
2023/12/29 07:08:41;;;;;;;27.23;5.53;;;9.50;99.90;;;;;;5099321;28;20044;-70
2023/12/29 07:11:11;;;;;;;30.02;4.28;;;9.50;99.90;;;;;;5100608;28;20043;-70
2023/12/29 07:13:37;;;;;;;30.48;4.90;;;9.50;99.90;;;;;;5100459;27;20068;-70
2023/12/29 07:16:03;;;;;;;20.58;3.97;;;9.50;99.90;;;;;;5136991;27;21272;-70
2023/12/29 07:18:29;;;;;;;21.17;4.13;;;9.60;99.90;;;;;;5105760;27;20124;-70
2023/12/29 07:20:55;;;;;;;23.50;5.60;;;9.60;99.90;;;;;;5103074;27;20314;-70
2023/12/29 07:23:20;;;;;;;27.73;4.60;;;9.60;99.90;;;;;;5107558;27;20413;-70
2023/12/29 07:25:48;;;;;;;28.20;5.13;;;9.60;99.90;;;;;;5107787;27;20468;-70
2023/12/29 07:28:13;;;;;;;34.03;5.65;;;9.50;99.90;;;;;;5104322;28;20039;-70
2023/12/29 07:30:39;;;;;;;29.95;5.38;;;9.50;99.90;;;;;;5104088;28;20097;-70
2023/12/29 07:33:05;;;;;;;29.85;5.10;;;9.50;99.90;;;;;;5134201;27;20031;-71
2023/12/29 07:35:31;;;;;;;33.72;5.90;;;9.40;99.90;;;;;;5106882;28;20039;-70
2023/12/29 07:37:56;;;;;;;27.10;4.82;;;9.40;99.90;;;;;;5106749;28;20051;-70
2023/12/29 07:40:22;;;;;;;28.50;4.65;;;9.40;99.90;;;;;;5105242;28;20044;-70
2023/12/29 07:42:50;;;;;;;25.05;3.97;;;9.40;99.90;;;;;;5102155;27;20473;-70
2023/12/29 07:45:16;;;;;;;29.90;5.38;;;9.30;99.90;;;;;;5107239;28;20040;-70
2023/12/29 07:47:42;;;;;;;27.77;5.32;;;9.40;99.90;;;;;;5119452;27;20087;-70
2023/12/29 07:50:08;;;;;;;28.88;5.00;;;9.40;99.90;;;;;;5103782;27;20457;-70
2023/12/29 07:52:34;;;;;;;32.42;5.88;;;9.40;99.90;;;;;;5103609;27;20040;-70
2023/12/29 07:54:59;;;;;;;30.77;4.90;;;9.40;99.90;;;;;;5106435;27;20047;-70
2023/12/29 07:57:25;;;;;;;23.48;4.68;;;9.50;99.90;;;;;;5103066;27;20172;-70
2023/12/29 07:59:50;;;;;;;31.25;5.63;;;9.50;99.90;;;;;;5101951;28;20493;-70
2023/12/29 08:02:16;;;;;;;27.98;4.32;;;9.40;99.90;;;;;;5138175;27;20101;-70
2023/12/29 08:04:42;;;;;;;27.17;4.88;;;9.50;99.90;;;;;;5108482;27;20031;-70
2023/12/29 08:07:07;;;;;;;32.70;5.15;;;9.50;99.90;;;;;;5104517;27;20027;-70
2023/12/29 08:09:33;;;;;;;26.02;5.05;;;9.50;99.90;;;;;;5136535;27;20058;-70
2023/12/29 08:11:59;;;;;;;28.42;5.90;;;9.50;99.90;;;;;;5102953;28;20070;-70
2023/12/29 08:14:24;;;;;;;19.83;3.67;;;9.50;99.90;;;;;;5133590;27;20040;-70
2023/12/29 08:16:50;;;;;;;26.00;5.53;;;9.50;99.90;;;;;;5103585;28;20039;-70
2023/12/29 08:19:16;;;;;;;17.48;4.43;;;9.60;99.90;;;;;;5101058;27;20068;-70
2023/12/29 08:21:41;;;;;;;20.67;4.95;;;9.70;99.90;;;;;;5100805;27;20104;-70
2023/12/29 08:24:07;;;;;;;24.63;4.55;;;9.60;99.90;;;;;;5136747;27;20039;-70
2023/12/29 08:26:33;;;;;;;25.88;3.90;;;9.60;99.90;;;;;;5100109;28;20043;-70
2023/12/29 08:28:58;;;;;;;20.05;3.47;;;9.60;99.90;;;;;;5103940;27;20040;-70
2023/12/29 08:31:26;;;;;;;17.40;3.97;;;9.60;99.90;;;;;;5104325;28;20421;-70
2023/12/29 08:33:51;;;;;;;19.23;3.97;;;9.60;99.90;;;;;;5101815;28;20059;-70
2023/12/29 08:36:21;;;;;;;19.73;4.45;;;9.60;99.90;;;;;;5100727;27;20043;-70
2023/12/29 08:38:47;;;;;;;25.73;4.10;;;9.60;99.90;;;;;;5132845;27;20032;-70
2023/12/29 08:41:15;;;;;;;21.27;4.30;;;9.60;99.90;;;;;;5102062;27;20084;-70
2023/12/29 08:43:41;;;;;;;24.40;3.47;;;9.60;99.90;;;;;;5101420;27;20080;-70
2023/12/29 08:46:06;;;;;;;18.13;3.55;;;9.60;99.90;;;;;;5099616;27;20035;-70
2023/12/29 08:48:32;;;;;;;18.08;3.33;;;9.60;99.90;;;;;;5140019;27;20036;-70
2023/12/29 08:50:58;;;;;;;22.45;3.22;;;9.60;99.90;;;;;;5102222;27;20032;-70
2023/12/29 08:53:23;;;;;;;18.42;3.47;;;9.60;99.90;;;;;;5102000;27;20124;-70
2023/12/29 08:55:49;;;;;;;13.50;2.45;;;9.60;99.90;;;;;;5103534;27;20098;-70
2023/12/29 08:58:15;;;;;;;23.40;4.85;;;9.60;99.90;;;;;;5096681;27;20036;-70
2023/12/29 09:00:40;;;;;;;14.30;3.25;;;9.80;99.90;;;;;;5104480;27;20039;-70
2023/12/29 09:03:06;;;;;;;15.40;3.03;;;9.70;99.90;;;;;;5097661;27;20721;-70
2023/12/29 09:05:31;;;;;;;20.90;3.38;;;9.70;99.90;;;;;;5103045;27;20046;-70
2023/12/29 09:07:57;;;;;;;18.80;3.13;;;9.70;99.90;;;;;;5101603;27;20040;-70
2023/12/29 09:10:23;;;;;;;18.80;2.78;;;9.60;99.90;;;;;;5101173;27;20039;-70
2023/12/29 09:12:49;;;;;;;19.58;3.75;;;9.70;99.90;;;;;;5116119;27;20039;-70
2023/12/29 09:15:15;;;;;;;18.63;2.65;;;9.70;99.90;;;;;;5100285;27;20051;-70
2023/12/29 09:17:41;;;;;;;16.35;4.30;;;9.70;99.90;;;;;;5099419;27;20039;-70
2023/12/29 09:20:07;;;;;;;12.85;3.08;;;9.70;99.90;;;;;;5100160;27;20035;-70
2023/12/29 09:22:34;;;;;;;18.30;2.78;;;9.70;99.90;;;;;;5101899;27;20203;-70
2023/12/29 09:25:00;;;;;;;14.35;2.42;;;9.70;99.90;;;;;;5100238;27;20445;-70
2023/12/29 09:27:25;;;;;;;14.05;2.28;;;9.70;99.90;;;;;;5101156;28;20043;-70
2023/12/29 09:29:51;;;;;;;15.25;2.30;;;9.70;99.90;;;;;;5100335;27;20032;-70
2023/12/29 09:32:17;;;;;;;11.80;2.38;;;9.70;99.90;;;;;;5100636;27;20046;-70
2023/12/29 09:34:42;;;;;;;17.80;3.05;;;9.80;99.90;;;;;;5131808;27;20035;-70
2023/12/29 09:37:08;;;;;;;14.60;2.55;;;9.80;99.90;;;;;;5133309;27;20057;-70
2023/12/29 09:39:34;;;;;;;14.55;2.78;;;10.00;99.90;;;;;;5102267;27;20046;-70
2023/12/29 09:42:03;;;;;;;12.70;2.85;;;10.00;99.90;;;;;;5099294;27;20035;-70
2023/12/29 09:44:31;;;;;;;16.85;2.75;;;9.80;99.90;;;;;;5099473;27;20485;-70
2023/12/29 09:47:02;;;;;;;17.13;3.65;;;9.90;99.90;;;;;;5098658;27;20028;-70
2023/12/29 09:49:40;;;;;;;13.50;2.33;;;9.90;99.90;;;;;;5104034;28;20431;-70
2023/12/29 09:52:09;;;;;;;13.30;2.80;;;9.90;99.90;;;;;;5097877;27;20094;-70
2023/12/29 09:54:36;;;;;;;13.90;2.22;;;9.90;99.90;;;;;;5100755;27;20035;-70
2023/12/29 09:57:06;;;;;;;13.38;2.75;;;10.00;99.90;;;;;;5103836;27;20044;-70
2023/12/29 09:59:38;;;;;;;13.02;2.30;;;10.00;99.90;;;;;;5099537;28;20172;-70
2023/12/29 10:02:23;;;;;;;14.73;3.08;;;10.00;99.90;;;;;;5100108;28;20058;-70
2023/12/29 10:04:49;;;;;;;15.27;2.88;;;10.00;99.90;;;;;;5098765;27;20040;-70
2023/12/29 10:07:25;;;;;;;12.10;2.40;;;10.00;99.90;;;;;;5132023;27;20036;-70
2023/12/29 10:09:56;;;;;;;17.35;2.90;;;10.00;99.90;;;;;;5100379;28;20044;-70
2023/12/29 10:12:23;;;;;;;17.00;2.08;;;10.00;99.90;;;;;;5099484;27;20389;-70
2023/12/29 10:14:56;;;;;;;16.65;3.00;;;9.90;99.90;;;;;;5100374;28;20047;-70
2023/12/29 10:17:39;;;;;;;18.73;3.17;;;10.00;99.90;;;;;;5098979;28;20055;-69
2023/12/29 10:20:18;;;;;;;12.10;2.15;;;9.90;99.90;;;;;;5131646;27;20087;-70
2023/12/29 10:22:57;;;;;;;15.32;2.30;;;9.90;99.90;;;;;;5101951;28;20042;-69
2023/12/29 10:25:23;;;;;;;13.52;2.55;;;10.00;99.90;;;;;;5099754;28;20043;-69
2023/12/29 10:27:49;;;;;;;16.80;3.22;;;10.00;99.90;;;;;;5098380;28;20042;-70
2023/12/29 10:30:15;;;;;;;14.38;2.40;;;10.00;99.90;;;;;;5101234;28;20048;-70
2023/12/29 10:32:41;;;;;;;12.13;2.47;;;10.00;99.90;;;;;;5133195;27;20035;-70
2023/12/29 10:35:10;;;;;;;14.68;2.92;;;10.10;99.90;;;;;;5100321;28;20103;-70
2023/12/29 10:37:37;;;;;;;12.35;1.65;;;10.10;99.90;;;;;;5132713;27;20134;-70
2023/12/29 10:40:03;;;;;;;16.05;2.80;;;10.10;99.90;;;;;;5103798;27;20041;-69
2023/12/29 10:42:29;;;;;;;15.90;2.88;;;10.10;99.90;;;;;;5101197;27;20050;-69
2023/12/29 10:45:08;;;;;;;12.48;1.75;;;10.10;99.90;;;;;;5100767;28;20036;-69
2023/12/29 10:47:35;;;;;;;9.57;2.47;;;10.20;99.90;;;;;;5105418;28;20114;-69
2023/12/29 10:50:03;;;;;;;10.65;2.20;;;10.20;99.90;;;;;;5102238;27;20055;-69
2023/12/29 10:52:30;;;;;;;13.63;2.33;;;10.10;99.90;;;;;;5107388;28;20055;-69
2023/12/29 10:55:10;;;;;;;17.33;2.15;;;10.10;99.90;;;;;;5119108;27;20081;-69
2023/12/29 10:57:38;;;;;;;14.75;2.47;;;10.00;99.90;;;;;;5101519;27;20052;-69
2023/12/29 11:00:06;;;;;;;14.15;1.63;;;10.00;99.90;;;;;;5106273;27;20043;-69
2023/12/29 11:02:33;;;;;;;8.68;1.83;;;10.00;99.90;;;;;;5099486;27;20043;-69
2023/12/29 11:05:08;;;;;;;21.25;2.92;;;10.00;99.90;;;;;;5138300;27;20051;-69
2023/12/29 11:07:38;;;;;;;10.27;2.20;;;10.00;99.90;;;;;;5104409;27;20520;-69
2023/12/29 11:10:05;;;;;;;13.30;2.85;;;10.00;99.90;;;;;;5100584;27;20088;-69
2023/12/29 11:12:33;;;;;;;18.48;3.22;;;10.10;99.90;;;;;;5105516;27;20044;-69
2023/12/29 11:15:00;;;;;;;15.88;2.40;;;10.10;99.90;;;;;;5137348;27;20049;-69
2023/12/29 11:17:26;;;;;;;15.68;3.50;;;10.20;99.90;;;;;;5105250;28;20043;-69
2023/12/29 11:19:52;;;;;;;9.25;1.63;;;10.20;99.90;;;;;;5135055;27;20426;-69
2023/12/29 11:22:19;;;;;;;12.27;2.30;;;10.30;99.90;;;;;;5106388;27;20036;-70
2023/12/29 11:24:48;;;;;;;15.70;2.38;;;10.40;99.90;;;;;;5106802;27;20027;-70
2023/12/29 11:27:15;;;;;;;16.95;2.65;;;10.50;99.90;;;;;;5104755;27;20490;-70
2023/12/29 11:29:42;;;;;;;14.93;2.88;;;10.60;99.90;;;;;;5107484;27;20031;-70
2023/12/29 11:32:15;;;;;;;17.65;3.00;;;10.50;99.90;;;;;;5103701;27;20040;-69
2023/12/29 11:34:49;;;;;;;14.68;2.65;;;10.60;99.90;;;;;;5101681;28;20075;-69
2023/12/29 11:37:50;;;;;;;14.32;2.30;;;10.90;99.90;;;;;;5135133;27;20047;-70
2023/12/29 11:40:46;;;;;;;9.65;2.65;;;10.70;99.90;;;;;;5101957;27;20147;-70
2023/12/29 11:43:16;;;;;;;9.13;1.58;;;10.80;99.90;;;;;;5136404;27;20043;-70
2023/12/29 11:45:42;;;;;;;14.90;2.90;;;10.70;99.90;;;;;;5103520;27;20034;-70
2023/12/29 11:48:08;;;;;;;11.00;2.88;;;10.60;99.90;;;;;;5103321;28;20039;-70
2023/12/29 11:50:43;;;;;;;8.98;1.63;;;10.50;99.90;;;;;;5101279;28;20048;-69
2023/12/29 11:53:09;;;;;;;8.73;1.67;;;10.40;99.90;;;;;;5104534;28;20051;-69
2023/12/29 11:55:36;;;;;;;11.30;2.05;;;10.30;99.90;;;;;;5104182;27;20088;-69
2023/12/29 11:58:04;;;;;;;10.63;1.58;;;10.30;99.90;;;;;;5102680;28;20055;-69
2023/12/29 12:00:46;;;;;;;8.38;1.98;;;10.20;99.90;;;;;;5103335;28;20040;-69
2023/12/29 12:03:16;;;;;;;14.40;1.70;;;10.10;99.90;;;;;;5102990;28;20729;-69
2023/12/29 12:05:49;;;;;;;10.88;2.10;;;10.10;99.90;;;;;;5104156;28;20040;-69
2023/12/29 12:08:32;;;;;;;7.63;2.08;;;10.00;99.90;;;;;;5108219;28;20390;-69
2023/12/29 12:11:29;;;;;;;9.40;1.58;;;10.00;99.90;;;;;;5106772;27;20046;-69
2023/12/29 12:13:56;;;;;;;11.93;2.17;;;9.90;99.90;;;;;;5102598;27;20425;-69
2023/12/29 12:16:50;;;;;;;9.50;1.58;;;10.00;99.90;;;;;;5103203;28;20050;-69
2023/12/29 12:19:18;;;;;;;14.27;1.77;;;10.00;99.90;;;;;;5104991;27;20040;-69
2023/12/29 12:21:47;;;;;;;13.02;2.30;;;9.90;99.90;;;;;;5104743;28;20032;-69
2023/12/29 12:24:13;;;;;;;11.68;2.13;;;9.90;99.90;;;;;;5101679;28;20501;-69
2023/12/29 12:26:40;;;;;;;15.82;2.58;;;9.90;99.90;;;;;;5104314;28;20036;-69
2023/12/29 12:29:07;;;;;;;15.40;2.58;;;10.10;99.90;;;;;;5103467;28;20040;-69
2023/12/29 12:31:32;;;;;;;11.90;2.15;;;9.90;99.90;;;;;;5101413;28;20043;-69
2023/12/29 12:34:00;;;;;;;13.70;2.40;;;9.90;99.90;;;;;;5103557;28;20043;-69
2023/12/29 12:36:26;;;;;;;14.55;2.22;;;9.90;99.90;;;;;;5105247;28;20055;-69
2023/12/29 12:38:57;;;;;;;14.93;2.97;;;9.90;99.90;;;;;;5102143;28;20035;-69
2023/12/29 12:41:27;;;;;;;14.52;3.63;;;9.90;99.90;;;;;;5105438;28;20079;-69
2023/12/29 12:44:13;;;;;;;16.02;2.22;;;10.00;99.90;;;;;;5102322;28;20040;-69
2023/12/29 12:46:48;;;;;;;9.30;2.22;;;10.10;99.90;;;;;;5101120;28;20050;-69